Piedmont, OK (73078)

6:42 PM CDT on July 29, 2016 (GMT -0500)
Northwood Lake Estates | | Change Station

Elev 1191 ft 35.63 °N, 97.76 °W | Updated 32 seconds ago

Clear
Clear
90.1 °F
Feels Like 94 °F
N
2.7
Wind Variable Wind from ENE

Today
High -- | Low -- °F
--% Chance of Precip.
Yesterday
High -- | Low -- °F
Precip. -- in
Pressure 29.93 in
Visibility 10.0 miles
Clouds Clear
Heat Index 94 °F
Dew Point 68 °F
Humidity 49%
Rainfall 0.95 in
Snow Depth Not available.
6:37 AM 8:37 PM
Waning Crescent, 18% visible
METAR KPWA 292253Z 07007KT 040V110 10SM CLR 29/18 A2998 RMK AO2 SLP135 T02940183
Pressure 29.93 in
Visibility 10.0 miles
Clouds Clear
Heat Index 94 °F
Dew Point 68 °F
Humidity 49%
Rainfall 0.95 in
Snow Depth Not available.
6:37 AM 8:37 PM
Waning Crescent, 18% visible
METAR KPWA 292253Z 07007KT 040V110 10SM CLR 29/18 A2998 RMK AO2 SLP135 T02940183

10-Day Weather Forecast

Almanac

Astronomy

Jul. 29, 2016 Rise Set
Actual Time
Civil Twilight
Nautical Twilight
Astronomical Twilight
Moon
Length of Visible Light
Length of Day
Tomorrow will be .
, % of the Moon is Illuminated

Today's Extremes

State Highs State Lows

Community

WunderPhotos

Upload Photos

1,928,447 photos uploaded!

WunderBlog® & News

Nearby

Air Quality

  Air Quality AQ Index Pollutant
Not available.

Snow Depth

Station Depth Elevation

Earthquake Activity

City Distance Mag. Time & Date
Minimum magnitude displayed is 2.5.

Coastal Water Temperatures

Place Temperature

Stations

Nearby Weather Stations

Station Location Temp. Windchill Dew Point Humidity Wind Precip. Elev Updated Type
                   

Watches & Warnings

There are currently no watches in effect.